< Cyclone 198304 1983 Season Cyclone 198306 >
Cyclone 198305 (LENA)
General InformationTrack Information on Google MapsList of All Images || ResourceGoogle EarthGE AnimationAtom FeedGeoJSON
Detalied Best Track (Time Zone = UTC)
Year Month Day Hour Lat. Long. Pressure (hPa) Wind (kt) Class Image Chart
1983 4 2 00 -9.9 124.7 1009 0 0 Image --
1983 4 2 06 -10.5 123.6 1009 0 0 Image --
1983 4 2 12 -10.9 122.9 1009 0 0 Image --
1983 4 2 18 -10.9 121.9 1009 0 0 Image --
1983 4 3 00 -10.8 121.1 1008 0 0 Image --
1983 4 3 06 -10.6 120.4 1005 0 0 Image --
1983 4 3 12 -10.7 119.5 1002 0 0 Image --
1983 4 3 18 -10.7 118.2 999 0 0 Image --
1983 4 4 00 -11.2 117.0 996 0 0 Image --
1983 4 4 06 -11.6 116.2 994 0 0 Image --
1983 4 4 12 -12.1 115.7 994 0 0 Image --
1983 4 4 18 -12.5 115.4 993 0 0 Image --
1983 4 5 00 -12.7 115.2 992 0 0 Image --
1983 4 5 06 -13.4 114.9 991 0 0 Image --
1983 4 5 12 -14.1 115.0 988 0 0 Image --
1983 4 5 18 -14.5 114.9 985 0 0 Image --
1983 4 6 00 -14.8 114.8 980 0 0 Image --
1983 4 6 06 -15.3 114.7 980 0 0 Image --
1983 4 6 12 -16.2 114.5 980 0 0 Image --
1983 4 6 18 -16.6 114.4 980 0 0 Image --
1983 4 6 21 -17.0 114.2 980 0 0 Image --
1983 4 7 00 -17.5 114.3 980 0 0 Image --
1983 4 7 03 -17.7 114.7 980 0 0 Image --
1983 4 7 06 -17.9 114.8 980 0 0 Image --
1983 4 7 09 -18.4 115.4 980 0 0 Image --
1983 4 7 12 -18.7 115.9 980 0 0 Image --
1983 4 7 15 -18.9 116.3 980 0 0 Image --
1983 4 7 18 -19.3 116.9 980 0 0 Image --
1983 4 7 21 -19.9 117.7 980 0 0 Image --
1983 4 8 00 -20.5 118.5 980 0 0 Image --
1983 4 8 03 -20.9 119.2 983 0 0 Image --
1983 4 8 06 -21.6 120.8 986 0 0 Image --
1983 4 8 09 -22.1 121.8 989 0 0 Image --
1983 4 8 12 -22.3 122.7 992 0 0 Image --
1983 4 8 15 -22.7 123.6 995 0 0 Image --
1983 4 8 18 -23.3 124.6 998 0 0 Image --
1983 4 8 21 -23.8 125.6 1001 0 0 Image --
1983 4 9 00 -24.6 126.5 1005 0 0 Image --
< Cyclone 198304 1983 Season Cyclone 198306 >

Help